createdAt,value
2017-09-07T00:01:27.643Z,14.40
2017-09-07T00:03:55.168Z,14.30
2017-09-07T00:06:22.665Z,14.20
2017-09-07T00:08:50.182Z,14.30
2017-09-07T00:11:17.699Z,14.20
2017-09-07T00:13:45.239Z,14.20
2017-09-07T00:16:14.975Z,14.20
2017-09-07T00:18:42.524Z,14.30
2017-09-07T00:21:11.982Z,14.20
2017-09-07T00:24:08.945Z,14.20
2017-09-07T00:26:38.458Z,14.10
2017-09-07T00:29:05.946Z,14.00
2017-09-07T00:31:33.475Z,14.00
2017-09-07T00:34:00.971Z,14.00
2017-09-07T00:36:28.593Z,14.00
2017-09-07T00:38:56.086Z,14.00
2017-09-07T00:41:23.590Z,14.00
2017-09-07T00:43:51.139Z,14.10
2017-09-07T00:46:18.658Z,14.00
2017-09-07T00:48:46.166Z,14.10
2017-09-07T00:51:13.697Z,14.00
2017-09-07T00:53:41.596Z,14.00
2017-09-07T00:56:09.094Z,14.00
2017-09-07T00:58:36.599Z,14.00
2017-09-07T01:01:04.119Z,13.90
2017-09-07T01:03:31.651Z,14.00
2017-09-07T01:05:59.148Z,14.10
2017-09-07T01:08:27.062Z,14.00
2017-09-07T01:10:54.558Z,14.00
2017-09-07T01:13:22.126Z,14.00
2017-09-07T01:15:49.619Z,14.00
2017-09-07T01:18:17.113Z,14.00
2017-09-07T01:20:45.755Z,14.00
2017-09-07T01:23:13.262Z,13.90
2017-09-07T01:25:40.734Z,13.80
2017-09-07T01:28:08.234Z,13.80
2017-09-07T01:30:36.666Z,13.80
2017-09-07T01:33:04.168Z,13.70
2017-09-07T01:35:31.647Z,13.70
2017-09-07T01:38:01.090Z,13.70
2017-09-07T01:40:29.922Z,13.80
2017-09-07T01:42:57.419Z,13.80
2017-09-07T01:45:24.935Z,13.90
2017-09-07T01:47:52.466Z,13.80
2017-09-07T01:50:19.976Z,13.80
2017-09-07T01:52:47.470Z,13.80
2017-09-07T01:55:16.989Z,13.80
2017-09-07T01:57:44.483Z,13.90
2017-09-07T02:00:12.381Z,13.90
2017-09-07T02:02:40.009Z,13.90
2017-09-07T02:05:07.522Z,13.90
2017-09-07T02:07:35.410Z,13.80
2017-09-07T02:10:02.931Z,13.80
2017-09-07T02:12:30.410Z,13.80
2017-09-07T02:14:57.978Z,13.80
2017-09-07T02:17:25.467Z,13.90
2017-09-07T02:19:52.989Z,13.90
2017-09-07T02:22:20.515Z,13.80
2017-09-07T02:24:48.031Z,13.80
2017-09-07T02:27:15.520Z,13.80
2017-09-07T02:29:45.046Z,13.80
2017-09-07T02:32:12.572Z,13.70
2017-09-07T02:34:41.014Z,13.80
2017-09-07T02:37:08.527Z,13.80
2017-09-07T02:39:36.943Z,13.80
2017-09-07T02:42:04.490Z,13.80
2017-09-07T02:44:31.989Z,13.80
2017-09-07T02:46:59.487Z,13.90
2017-09-07T02:49:27.023Z,13.80
2017-09-07T02:51:54.525Z,13.80
2017-09-07T02:54:22.058Z,13.70
2017-09-07T02:56:50.506Z,13.70
2017-09-07T02:59:18.010Z,13.70
2017-09-07T03:01:45.521Z,13.80
2017-09-07T03:04:13.038Z,13.80
2017-09-07T03:06:40.524Z,13.80
2017-09-07T03:09:09.966Z,13.70
2017-09-07T03:11:37.463Z,13.80
2017-09-07T03:14:05.014Z,13.70
2017-09-07T03:16:32.529Z,13.80
2017-09-07T03:19:00.031Z,13.80
2017-09-07T03:21:27.543Z,13.70
2017-09-07T03:23:55.035Z,13.70
2017-09-07T03:26:23.167Z,13.70
2017-09-07T03:28:50.674Z,13.70
2017-09-07T03:31:18.149Z,13.70
2017-09-07T03:33:45.653Z,13.70
2017-09-07T03:36:13.143Z,13.70
2017-09-07T03:38:40.647Z,13.70
2017-09-07T03:41:08.162Z,13.70
2017-09-07T03:43:38.082Z,13.70
2017-09-07T03:46:05.580Z,13.70
2017-09-07T03:48:33.127Z,13.80
2017-09-07T03:51:00.607Z,13.70
2017-09-07T03:53:28.112Z,13.70
2017-09-07T03:55:56.419Z,13.70
2017-09-07T03:58:23.928Z,13.70
2017-09-07T04:00:51.422Z,13.70
2017-09-07T04:03:18.937Z,13.70
2017-09-07T04:05:47.384Z,13.70
2017-09-07T04:08:14.895Z,13.70
2017-09-07T04:10:42.406Z,13.70
2017-09-07T04:13:09.934Z,13.70
2017-09-07T04:15:38.383Z,13.70
2017-09-07T04:18:05.867Z,13.80
2017-09-07T04:20:33.385Z,13.80
2017-09-07T04:23:00.906Z,13.80
2017-09-07T04:25:28.411Z,13.70
2017-09-07T04:27:55.918Z,13.70
2017-09-07T04:30:23.418Z,13.80
2017-09-07T04:32:51.314Z,13.70
2017-09-07T04:35:18.830Z,13.70
2017-09-07T04:37:46.322Z,13.80
2017-09-07T04:40:13.838Z,13.80
2017-09-07T04:42:43.330Z,13.80
2017-09-07T04:45:10.816Z,13.70
2017-09-07T04:47:38.727Z,13.80
2017-09-07T04:50:06.210Z,13.80
2017-09-07T04:52:34.662Z,13.70
2017-09-07T04:55:02.176Z,13.80
2017-09-07T04:57:29.701Z,13.80
2017-09-07T04:59:57.194Z,13.80
2017-09-07T05:02:24.734Z,13.80
2017-09-07T05:04:53.190Z,13.80
2017-09-07T05:07:20.690Z,13.80
2017-09-07T05:09:48.582Z,13.80
2017-09-07T05:12:16.090Z,13.80
2017-09-07T05:14:43.586Z,13.80
2017-09-07T05:17:11.086Z,13.80
2017-09-07T05:19:38.594Z,13.80
2017-09-07T05:22:06.139Z,13.80
2017-09-07T05:24:33.623Z,13.80
2017-09-07T05:27:02.107Z,13.80
2017-09-07T05:29:29.598Z,13.80
2017-09-07T05:31:57.179Z,13.80
2017-09-07T05:34:24.698Z,13.80
2017-09-07T05:36:52.254Z,13.80
2017-09-07T05:39:19.744Z,13.80
2017-09-07T05:41:47.258Z,13.80
2017-09-07T05:44:14.753Z,13.80
2017-09-07T05:46:42.257Z,13.90
2017-09-07T05:49:09.791Z,13.80
2017-09-07T05:51:37.707Z,13.90
2017-09-07T05:54:05.237Z,13.90
2017-09-07T05:56:33.644Z,13.90
2017-09-07T05:59:01.120Z,13.90
2017-09-07T06:01:29.407Z,13.90
2017-09-07T06:03:58.870Z,13.90
2017-09-07T06:06:26.372Z,13.90
2017-09-07T06:08:53.870Z,13.90
2017-09-07T06:11:21.358Z,13.90
2017-09-07T06:13:50.790Z,14.00
2017-09-07T06:16:18.286Z,14.00
2017-09-07T06:18:45.806Z,14.00
2017-09-07T06:21:14.239Z,14.00
2017-09-07T06:23:41.762Z,14.00
2017-09-07T06:26:09.675Z,14.00
2017-09-07T06:28:37.195Z,14.00
2017-09-07T06:31:04.683Z,14.10
2017-09-07T06:33:32.185Z,14.10
2017-09-07T06:35:59.679Z,14.10
2017-09-07T06:38:27.182Z,14.20
2017-09-07T06:40:54.661Z,14.30
2017-09-07T06:43:22.190Z,14.30
2017-09-07T06:45:49.696Z,14.30
2017-09-07T06:48:17.207Z,14.30
2017-09-07T06:50:44.702Z,14.30
2017-09-07T06:53:12.223Z,14.20
2017-09-07T06:55:39.710Z,14.20
2017-09-07T06:58:07.222Z,14.30
2017-09-07T07:00:34.707Z,14.30
2017-09-07T07:03:02.948Z,14.30
2017-09-07T07:05:30.451Z,14.40
2017-09-07T07:07:57.944Z,14.40
2017-09-07T07:10:25.453Z,14.50
2017-09-07T07:12:52.934Z,14.50
2017-09-07T07:15:20.454Z,14.60
2017-09-07T07:17:47.930Z,14.70
2017-09-07T07:20:15.453Z,14.70
2017-09-07T07:22:42.958Z,14.80
2017-09-07T07:25:10.444Z,14.80
2017-09-07T07:27:37.946Z,14.80
2017-09-07T07:30:05.459Z,14.90
2017-09-07T07:32:32.949Z,15.00
2017-09-07T07:35:00.442Z,15.00
2017-09-07T07:37:27.934Z,15.00
2017-09-07T07:39:55.447Z,15.10
2017-09-07T07:42:22.939Z,15.10
2017-09-07T07:44:51.430Z,15.10
2017-09-07T07:47:18.983Z,15.20
2017-09-07T07:49:46.538Z,15.20
2017-09-07T07:52:14.045Z,15.30
2017-09-07T07:54:41.546Z,15.40
2017-09-07T07:57:09.062Z,15.40
2017-09-07T07:59:37.499Z,15.50
2017-09-07T08:02:05.044Z,15.50
2017-09-07T08:04:32.532Z,15.50
2017-09-07T08:07:00.048Z,15.60
2017-09-07T08:09:27.925Z,15.80
2017-09-07T08:11:55.447Z,15.90
2017-09-07T08:14:22.942Z,15.80
2017-09-07T08:16:50.483Z,15.80
2017-09-07T08:19:18.000Z,15.90
2017-09-07T08:21:45.535Z,16.00
2017-09-07T08:24:13.018Z,16.20
2017-09-07T08:26:40.527Z,16.20
2017-09-07T08:29:08.029Z,16.40
2017-09-07T08:31:35.534Z,16.40
2017-09-07T08:34:03.094Z,16.40
2017-09-07T08:36:30.617Z,16.20
2017-09-07T08:38:58.123Z,16.10
2017-09-07T08:41:25.652Z,16.10
2017-09-07T08:43:53.146Z,16.20
2017-09-07T08:46:20.663Z,16.40
2017-09-07T08:48:48.181Z,16.40
2017-09-07T08:51:15.666Z,16.40
2017-09-07T08:53:44.125Z,16.50
2017-09-07T08:56:11.634Z,16.50
2017-09-07T08:58:39.156Z,16.60
2017-09-07T09:01:06.654Z,16.70
2017-09-07T09:03:34.179Z,16.70
2017-09-07T09:06:01.678Z,16.80
2017-09-07T09:08:29.210Z,17.00
2017-09-07T09:10:57.993Z,16.90
2017-09-07T09:13:25.547Z,16.90
2017-09-07T09:15:53.075Z,16.90
2017-09-07T09:18:21.386Z,17.00
2017-09-07T09:20:48.891Z,17.20
2017-09-07T09:23:16.397Z,17.30
2017-09-07T09:25:43.899Z,17.10
2017-09-07T09:28:11.386Z,16.90
2017-09-07T09:30:38.894Z,17.00
2017-09-07T09:33:06.395Z,17.20
2017-09-07T09:35:33.899Z,17.30
2017-09-07T09:38:01.444Z,17.40
2017-09-07T09:40:28.970Z,17.60
2017-09-07T09:42:56.493Z,17.60
2017-09-07T09:45:24.019Z,17.60
2017-09-07T09:47:51.510Z,17.70
2017-09-07T09:50:21.096Z,17.80
2017-09-07T09:52:48.602Z,17.90
2017-09-07T09:55:16.102Z,18.00
2017-09-07T09:57:43.589Z,18.20
2017-09-07T10:00:13.090Z,18.20
2017-09-07T10:02:41.539Z,18.30
2017-09-07T10:05:09.086Z,18.50
2017-09-07T10:07:36.582Z,18.60
2017-09-07T10:10:04.137Z,18.70
2017-09-07T10:12:31.658Z,18.60
2017-09-07T10:15:01.130Z,18.70
2017-09-07T10:17:28.637Z,18.90
2017-09-07T10:19:56.182Z,19.10
2017-09-07T10:22:23.687Z,19.20
2017-09-07T10:24:51.205Z,19.10
2017-09-07T10:27:18.703Z,19.10
2017-09-07T10:29:46.186Z,18.90
2017-09-07T10:32:13.695Z,18.70
2017-09-07T10:34:41.226Z,18.70
2017-09-07T10:37:08.730Z,18.60
2017-09-07T10:39:37.208Z,18.50
2017-09-07T10:42:04.714Z,18.50
2017-09-07T10:44:32.211Z,18.40
2017-09-07T10:46:59.721Z,18.50
2017-09-07T10:49:27.212Z,18.70
2017-09-07T10:51:56.650Z,18.90
2017-09-07T10:54:24.131Z,19.00
2017-09-07T10:56:51.662Z,19.00
2017-09-07T10:59:19.151Z,18.80
2017-09-07T11:01:46.661Z,18.60
2017-09-07T11:04:14.166Z,18.60
2017-09-07T11:06:41.642Z,18.60
2017-09-07T11:09:09.164Z,18.30
2017-09-07T11:11:36.663Z,18.30
2017-09-07T11:14:04.226Z,18.40
2017-09-07T11:16:31.740Z,18.50
2017-09-07T11:18:59.982Z,18.40
2017-09-07T11:21:28.820Z,18.40
2017-09-07T11:23:56.333Z,18.40
2017-09-07T11:26:23.862Z,18.40
2017-09-07T11:28:51.378Z,18.50
2017-09-07T11:31:20.854Z,18.40
2017-09-07T11:33:48.350Z,18.40
2017-09-07T11:36:15.858Z,18.50
2017-09-07T11:38:45.573Z,18.60
2017-09-07T11:41:13.104Z,18.60
2017-09-07T11:43:40.597Z,18.80
2017-09-07T11:46:08.118Z,18.90
2017-09-07T11:48:35.642Z,18.80
2017-09-07T11:51:03.162Z,18.80
2017-09-07T11:53:31.500Z,18.80
2017-09-07T11:55:59.078Z,18.90
2017-09-07T11:58:26.618Z,18.90
2017-09-07T12:00:55.092Z,19.10
2017-09-07T12:03:22.617Z,19.20
2017-09-07T12:05:50.130Z,19.20
2017-09-07T12:08:18.371Z,19.10
2017-09-07T12:10:45.896Z,19.00
2017-09-07T12:13:13.472Z,19.00
2017-09-07T12:15:40.993Z,19.00
2017-09-07T12:18:08.492Z,19.10
2017-09-07T12:20:36.002Z,19.20
2017-09-07T12:23:04.432Z,19.00
2017-09-07T12:25:31.942Z,19.00
2017-09-07T12:27:59.497Z,19.10
2017-09-07T12:30:28.993Z,19.10
2017-09-07T12:32:56.486Z,19.00
2017-09-07T12:35:23.982Z,19.00
2017-09-07T12:37:53.304Z,19.10
2017-09-07T12:40:21.555Z,19.10
2017-09-07T12:42:49.186Z,19.30
2017-09-07T12:45:16.722Z,19.40
2017-09-07T12:47:44.227Z,19.30
2017-09-07T12:50:11.825Z,19.30
2017-09-07T12:52:39.379Z,19.30
2017-09-07T12:55:06.924Z,19.20
2017-09-07T12:57:36.266Z,19.20
2017-09-07T13:00:04.653Z,19.20
2017-09-07T13:02:34.208Z,19.20
2017-09-07T13:05:01.891Z,19.10
2017-09-07T13:07:30.634Z,19.00
2017-09-07T13:09:59.173Z,19.00
2017-09-07T13:12:29.907Z,19.10
2017-09-07T13:14:57.706Z,19.30
2017-09-07T13:19:50.108Z,19.40
2017-09-07T13:22:19.040Z,19.30
2017-09-07T13:24:47.727Z,19.30
2017-09-07T13:27:21.531Z,19.30
2017-09-07T13:29:53.171Z,19.70
2017-09-07T13:32:23.273Z,19.70
2017-09-07T13:34:52.212Z,19.80
2017-09-07T13:37:26.546Z,19.70
2017-09-07T13:39:55.308Z,19.70
2017-09-07T13:42:22.937Z,19.80
2017-09-07T13:47:25.663Z,19.90
2017-09-07T13:49:53.331Z,20.00
2017-09-07T13:52:27.781Z,20.00
2017-09-07T13:58:05.827Z,20.00
2017-09-07T14:00:34.686Z,19.90
2017-09-07T14:03:14.938Z,20.00
2017-09-07T14:05:44.542Z,20.00
2017-09-07T14:08:27.175Z,20.10
2017-09-07T14:15:08.269Z,20.40
2017-09-07T14:17:36.892Z,20.60
2017-09-07T14:20:04.513Z,20.70
2017-09-07T14:22:32.872Z,20.90
2017-09-07T14:25:02.433Z,21.00
2017-09-07T14:27:30.045Z,20.90
2017-09-07T14:29:57.702Z,20.70
2017-09-07T14:32:26.142Z,20.30
2017-09-07T14:35:08.054Z,20.10
2017-09-07T14:37:35.625Z,20.00
2017-09-07T14:42:53.634Z,19.80
2017-09-07T14:45:21.286Z,19.80
2017-09-07T14:47:49.948Z,19.70
2017-09-07T14:50:17.556Z,19.70
2017-09-07T14:52:46.320Z,19.60
2017-09-07T14:55:13.890Z,19.70
2017-09-07T14:57:42.630Z,19.70
2017-09-07T15:00:12.127Z,19.70
2017-09-07T15:02:40.757Z,19.80
2017-09-07T15:05:08.355Z,19.80
2017-09-07T15:07:35.870Z,19.70
2017-09-07T15:10:03.843Z,19.80
2017-09-07T15:12:35.563Z,19.80
2017-09-07T15:15:05.055Z,19.80
2017-09-07T15:17:32.658Z,19.70
2017-09-07T15:20:00.174Z,19.70
2017-09-07T15:22:27.676Z,19.80
2017-09-07T15:24:55.194Z,19.80
2017-09-07T15:27:22.695Z,19.80
2017-09-07T15:29:50.203Z,19.90
2017-09-07T15:32:18.552Z,20.00
2017-09-07T15:34:47.160Z,20.20
2017-09-07T15:37:14.645Z,20.20
2017-09-07T15:39:42.407Z,20.10
2017-09-07T15:42:12.068Z,20.00
2017-09-07T15:44:43.462Z,19.80
2017-09-07T15:47:10.971Z,19.60
2017-09-07T15:49:38.471Z,19.40
2017-09-07T15:52:05.975Z,19.20
2017-09-07T15:54:33.622Z,19.10
2017-09-07T15:57:01.145Z,19.10
2017-09-07T15:59:28.653Z,19.10
2017-09-07T16:01:58.251Z,19.10
2017-09-07T16:04:25.735Z,19.10
2017-09-07T16:06:53.246Z,19.10
2017-09-07T16:09:20.856Z,19.10
2017-09-07T16:11:48.348Z,19.10
2017-09-07T16:14:15.861Z,19.00
2017-09-07T16:16:43.923Z,19.00
2017-09-07T16:19:13.443Z,19.00
2017-09-07T16:21:41.441Z,19.00
2017-09-07T16:24:09.544Z,18.90
2017-09-07T16:26:37.437Z,18.90
2017-09-07T16:29:04.989Z,18.90
2017-09-07T16:31:32.531Z,18.90
2017-09-07T16:34:01.979Z,18.80
2017-09-07T16:36:29.562Z,18.80
2017-09-07T16:38:57.069Z,18.70
2017-09-07T16:41:24.604Z,18.70
2017-09-07T16:43:53.637Z,18.70
2017-09-07T16:46:21.995Z,18.60
2017-09-07T16:48:49.538Z,18.60
2017-09-07T16:51:17.064Z,18.60
2017-09-07T16:53:48.966Z,18.60
2017-09-07T16:56:23.021Z,18.50
2017-09-07T16:58:53.369Z,18.60
2017-09-07T17:01:30.856Z,18.50
2017-09-07T17:03:58.367Z,18.50
2017-09-07T17:06:26.840Z,18.50
2017-09-07T17:08:54.348Z,18.50
2017-09-07T17:11:21.834Z,18.40
2017-09-07T17:13:49.343Z,18.40
2017-09-07T17:16:16.882Z,18.40
2017-09-07T17:18:45.599Z,18.40
2017-09-07T17:21:13.082Z,18.40
2017-09-07T17:23:42.803Z,18.40
2017-09-07T17:26:11.262Z,18.20
2017-09-07T17:28:40.115Z,18.20
2017-09-07T17:31:07.627Z,18.20
2017-09-07T17:33:36.043Z,18.20
2017-09-07T17:36:03.554Z,18.10
2017-09-07T17:38:31.098Z,18.10
2017-09-07T17:40:59.831Z,18.00
2017-09-07T17:43:27.329Z,18.00
2017-09-07T17:45:56.283Z,18.00
2017-09-07T17:48:24.446Z,18.00
2017-09-07T17:50:51.947Z,17.90
2017-09-07T17:53:19.451Z,17.90
2017-09-07T17:55:51.011Z,17.90
2017-09-07T17:58:22.931Z,17.80
2017-09-07T18:00:53.623Z,17.80
2017-09-07T18:03:21.131Z,17.80
2017-09-07T18:05:49.299Z,17.80
2017-09-07T18:08:16.786Z,17.70
2017-09-07T18:10:44.307Z,17.70
2017-09-07T18:13:11.807Z,17.60
2017-09-07T18:15:39.376Z,17.60
2017-09-07T18:18:06.929Z,17.60
2017-09-07T18:20:36.443Z,17.60
2017-09-07T18:23:04.634Z,17.60
2017-09-07T18:25:34.101Z,17.60
2017-09-07T18:28:01.640Z,17.60
2017-09-07T18:30:34.027Z,17.50
2017-09-07T18:33:01.656Z,17.60
2017-09-07T18:35:29.229Z,17.60
2017-09-07T18:37:56.786Z,17.60
2017-09-07T18:40:24.362Z,17.60
2017-09-07T18:42:52.304Z,17.70
2017-09-07T18:45:19.799Z,17.70
2017-09-07T18:47:47.303Z,17.70
2017-09-07T18:50:14.790Z,17.60
2017-09-07T18:52:42.303Z,17.70
2017-09-07T18:55:10.734Z,17.60
2017-09-07T18:57:39.254Z,17.60
2017-09-07T19:00:06.763Z,17.60
2017-09-07T19:02:34.271Z,17.50
2017-09-07T19:05:02.695Z,17.50
2017-09-07T19:07:30.195Z,17.50
2017-09-07T19:09:57.714Z,17.50
2017-09-07T19:12:25.232Z,17.60
2017-09-07T19:14:53.697Z,17.50
2017-09-07T19:17:21.194Z,17.50
2017-09-07T19:19:48.748Z,17.40
2017-09-07T19:22:16.374Z,17.40
2017-09-07T19:24:43.871Z,17.30
2017-09-07T19:27:11.379Z,17.30
2017-09-07T19:29:39.870Z,17.30
2017-09-07T19:32:07.419Z,17.30
2017-09-07T19:34:34.947Z,17.20
2017-09-07T19:37:02.468Z,17.20
2017-09-07T19:39:33.673Z,17.20
2017-09-07T19:42:01.420Z,17.20
2017-09-07T19:44:29.365Z,17.10
2017-09-07T19:46:56.920Z,17.10
2017-09-07T19:51:58.267Z,17.10
2017-09-07T19:54:25.805Z,17.10
2017-09-07T19:56:54.272Z,17.10
2017-09-07T19:59:21.806Z,17.10
2017-09-07T20:01:54.299Z,17.10
2017-09-07T20:04:21.768Z,17.10
2017-09-07T20:06:49.299Z,17.00
2017-09-07T20:09:22.426Z,17.00
2017-09-07T20:11:55.047Z,17.00
2017-09-07T20:14:26.556Z,17.00
2017-09-07T20:16:54.103Z,17.00
2017-09-07T20:19:25.704Z,17.00
2017-09-07T20:21:53.315Z,17.00
2017-09-07T20:24:20.892Z,17.00
2017-09-07T20:26:48.431Z,17.00
2017-09-07T20:29:15.964Z,17.00
2017-09-07T20:31:44.729Z,16.90
2017-09-07T20:34:13.700Z,16.90
2017-09-07T20:36:41.569Z,16.90
2017-09-07T20:39:09.251Z,16.80
2017-09-07T20:41:36.991Z,16.80
2017-09-07T20:44:04.762Z,16.90
2017-09-07T20:46:32.412Z,16.90
2017-09-07T20:49:01.845Z,16.90
2017-09-07T20:51:29.776Z,16.90
2017-09-07T20:53:58.586Z,16.80
2017-09-07T20:56:26.317Z,16.80
2017-09-07T20:58:54.010Z,16.70
2017-09-07T21:03:59.815Z,16.80
2017-09-07T21:06:28.031Z,16.80
2017-09-07T21:09:01.128Z,16.80
2017-09-07T21:11:32.171Z,16.70
2017-09-07T21:13:59.651Z,16.70
2017-09-07T21:16:27.220Z,16.70
2017-09-07T21:18:55.112Z,16.70
2017-09-07T21:21:22.638Z,16.70
2017-09-07T21:23:50.131Z,16.70
2017-09-07T21:26:18.833Z,16.70
2017-09-07T21:28:46.326Z,16.70
2017-09-07T21:31:14.242Z,16.70
2017-09-07T21:33:42.582Z,16.70
2017-09-07T21:36:10.086Z,16.70
2017-09-07T21:38:39.526Z,16.70
2017-09-07T21:41:07.038Z,16.70
2017-09-07T21:43:34.559Z,16.60
2017-09-07T21:46:02.060Z,16.60
2017-09-07T21:48:29.566Z,16.60
2017-09-07T21:50:57.066Z,16.60
2017-09-07T21:53:24.805Z,16.70
2017-09-07T21:55:53.118Z,16.70
2017-09-07T21:58:20.663Z,16.70
2017-09-07T22:00:48.159Z,16.70
2017-09-07T22:03:16.662Z,16.70
2017-09-07T22:05:44.150Z,16.60
2017-09-07T22:08:11.671Z,16.60
2017-09-07T22:10:39.155Z,16.60
2017-09-07T22:13:06.665Z,16.50
2017-09-07T22:15:34.164Z,16.50
2017-09-07T22:18:02.066Z,16.50
2017-09-07T22:20:30.829Z,16.50
2017-09-07T22:23:00.794Z,16.50
2017-09-07T22:25:28.440Z,16.50
2017-09-07T22:28:04.747Z,16.50
2017-09-07T22:30:33.132Z,16.40
2017-09-07T22:33:00.772Z,16.40
2017-09-07T22:35:30.813Z,16.40
2017-09-07T22:37:59.405Z,16.40
2017-09-07T22:40:27.006Z,16.40
2017-09-07T22:42:55.323Z,16.30
2017-09-07T22:45:22.867Z,16.40
2017-09-07T22:47:50.455Z,16.30
2017-09-07T22:50:18.010Z,16.30
2017-09-07T22:52:45.623Z,16.30
2017-09-07T22:55:13.143Z,16.30
2017-09-07T22:57:40.691Z,16.30
2017-09-07T23:00:08.308Z,16.20
2017-09-07T23:02:36.791Z,16.20
2017-09-07T23:05:04.383Z,16.20
2017-09-07T23:07:31.958Z,16.20
2017-09-07T23:10:00.783Z,16.20
2017-09-07T23:12:28.892Z,16.10
2017-09-07T23:14:56.474Z,16.20
2017-09-07T23:17:24.021Z,16.10
2017-09-07T23:19:51.534Z,16.20
2017-09-07T23:22:19.199Z,16.20
2017-09-07T23:24:46.847Z,16.10
2017-09-07T23:27:14.513Z,16.20
2017-09-07T23:29:43.011Z,16.20
2017-09-07T23:32:10.665Z,16.20
2017-09-07T23:34:38.321Z,16.20
2017-09-07T23:37:08.260Z,16.20
2017-09-07T23:39:35.750Z,16.10
2017-09-07T23:42:03.270Z,16.10
2017-09-07T23:44:31.549Z,16.10
2017-09-07T23:46:59.085Z,16.10
2017-09-07T23:49:26.605Z,16.10
2017-09-07T23:51:54.777Z,16.10
2017-09-07T23:54:22.274Z,16.10
2017-09-07T23:56:49.766Z,16.10
2017-09-07T23:59:17.647Z,16.20
